Aérodrome :
LOGIN :

S'inscrire | Disclaimer

   EN    FR    IT 

 










Légende :    VFR   VFR Marginal   IFR   IFR Intensif   IFR Très Intensif
Visi : 
Plafond : 
>= 8 km
>= 3000ft
5 à 8 km
1000 à 3000 ft
1500m à 5 km
500 à 1000 ft
800 à 1500m
200 à 500 ft
< 800m
< 200 ft
Symboles :   Orages  Brouillard  Fortes neiges  Fortes précipitations  Vent > 20 kt
SIGMETs :   Divers  Orages  Givrage  Turbulence  Onde Orograph.  Cendres Volcan.






- Altitude de l'aérodrome : 53 ft
- Code IATA : HAM


EDDH - Hamburg

DERNIER METAR :
  • 050550Z AUTO 08011KT 2100 SN BR BKN005 M02/M03 Q1006 TEMPO 1200 BKN004

METARs EXPIRÉS :
  • 050520Z AUTO 09011KT 2500 1400 R23/P2000N R15/P2000N SN BR FEW005 BKN020 M02/M04 Q1006 BECMG 4000 -SN BKN008
  • 050450Z AUTO 10012KT 2700 SN BR FEW006 BKN018 BKN029 M02/M04 Q1006 BECMG 4000 -SN BKN007
  • 050420Z AUTO 09010KT 8000 -SN SCT014 SCT020 BKN024 M02/M04 Q1006 TEMPO 4000 SN BKN014
  • 050350Z AUTO 09011KT 7000 -SN BKN014 BKN021 BKN042 M02/M04 Q1006 RESN TEMPO 3000 SN BKN009
  • 050320Z AUTO 10011KT 9000 -SN SCT018 SCT039 M01/M04 Q1006 BECMG 4000 BKN014
  • 050250Z AUTO 10011KT 9999 FEW034 M01/M04 Q1006 NOSIG
  • 050220Z AUTO 10011KT CAVOK M01/M04 Q1007 BECMG 4000 -SN
  • 050150Z AUTO 10010KT 080V140 CAVOK M01/M04 Q1007 BECMG 4000 -SN

TAF TAF EDDH
Valide du 05 à 06h jusqu'au 06 à 12h UTC


050500Z 0506/0612 10011KT 6000 SCT014 BKN020
TEMPO 0506/0511 4000 -SN BKN012
PROB40
TEMPO 0506/0511 2000 SN OVC007
TEMPO 0511/0517 4000 -SNRA BKN012
PROB30
TEMPO 0511/0522 -FZRA
BECMG 0517/0520 3500 BR BKN006
TEMPO 0523/0612 2500 BR BKN004



MET'MAP, la Météo Aéronautique d'un coup d'oeil ! - Copyright ORBIFLY Décembre 2007 - Disclaimer

ORBIFLY MET'MAP TEAM :

Programmation & Développement : Alexandra Zaïnal
Sur une idée originale de : Baudouin d'Aumeries
Soutien technique & logistique : Manuel Goepfert
Assistance : Marc-Olivier Méhu




SOURCES & CREDITS :

   NOAA